sensor_id;sensor_type;location;lat;lon;timestamp;P1;durP1;ratioP1;P2;durP2;ratioP2
53925;SDS011;39836;52.754;6.866;2023-02-18T00:00:12;20.50;;;5.15;;
53925;SDS011;39836;52.754;6.866;2023-02-18T00:02:41;31.50;;;5.35;;
53925;SDS011;39836;52.754;6.866;2023-02-18T00:05:07;22.80;;;5.22;;
53925;SDS011;39836;52.754;6.866;2023-02-18T00:07:33;24.77;;;5.95;;
53925;SDS011;39836;52.754;6.866;2023-02-18T00:10:00;16.15;;;4.10;;
53925;SDS011;39836;52.754;6.866;2023-02-18T00:12:26;16.30;;;4.57;;
53925;SDS011;39836;52.754;6.866;2023-02-18T00:14:51;21.50;;;4.50;;
53925;SDS011;39836;52.754;6.866;2023-02-18T00:17:17;22.63;;;5.43;;
53925;SDS011;39836;52.754;6.866;2023-02-18T00:19:43;23.90;;;5.78;;
53925;SDS011;39836;52.754;6.866;2023-02-18T00:22:08;27.10;;;5.75;;
53925;SDS011;39836;52.754;6.866;2023-02-18T00:24:34;17.08;;;4.75;;
53925;SDS011;39836;52.754;6.866;2023-02-18T00:27:00;21.38;;;5.07;;
53925;SDS011;39836;52.754;6.866;2023-02-18T00:29:26;24.80;;;5.32;;
53925;SDS011;39836;52.754;6.866;2023-02-18T00:31:52;21.52;;;5.32;;
53925;SDS011;39836;52.754;6.866;2023-02-18T00:34:17;21.60;;;5.15;;
53925;SDS011;39836;52.754;6.866;2023-02-18T00:36:43;21.38;;;5.47;;
53925;SDS011;39836;52.754;6.866;2023-02-18T00:39:09;24.15;;;4.97;;
53925;SDS011;39836;52.754;6.866;2023-02-18T00:41:36;21.90;;;5.28;;
53925;SDS011;39836;52.754;6.866;2023-02-18T00:44:03;18.35;;;4.53;;
53925;SDS011;39836;52.754;6.866;2023-02-18T00:46:29;18.85;;;4.65;;
53925;SDS011;39836;52.754;6.866;2023-02-18T00:48:55;21.23;;;5.03;;
53925;SDS011;39836;52.754;6.866;2023-02-18T00:51:21;22.35;;;4.63;;
53925;SDS011;39836;52.754;6.866;2023-02-18T00:53:49;24.80;;;5.15;;
53925;SDS011;39836;52.754;6.866;2023-02-18T00:56:15;19.63;;;4.40;;
53925;SDS011;39836;52.754;6.866;2023-02-18T00:58:41;17.13;;;4.95;;
53925;SDS011;39836;52.754;6.866;2023-02-18T01:01:07;18.33;;;5.10;;
53925;SDS011;39836;52.754;6.866;2023-02-18T01:03:34;18.27;;;4.95;;
53925;SDS011;39836;52.754;6.866;2023-02-18T01:06:01;25.98;;;5.22;;
53925;SDS011;39836;52.754;6.866;2023-02-18T01:08:27;16.92;;;5.07;;
53925;SDS011;39836;52.754;6.866;2023-02-18T01:10:53;25.48;;;5.45;;
53925;SDS011;39836;52.754;6.866;2023-02-18T01:13:20;23.80;;;6.15;;
53925;SDS011;39836;52.754;6.866;2023-02-18T01:15:46;18.85;;;6.15;;
53925;SDS011;39836;52.754;6.866;2023-02-18T01:18:12;20.60;;;6.00;;
53925;SDS011;39836;52.754;6.866;2023-02-18T01:20:39;27.02;;;6.68;;
53925;SDS011;39836;52.754;6.866;2023-02-18T01:23:06;22.95;;;6.72;;
53925;SDS011;39836;52.754;6.866;2023-02-18T01:25:32;26.45;;;6.78;;
53925;SDS011;39836;52.754;6.866;2023-02-18T01:27:58;29.85;;;7.13;;
53925;SDS011;39836;52.754;6.866;2023-02-18T01:30:24;25.45;;;6.28;;
53925;SDS011;39836;52.754;6.866;2023-02-18T01:32:49;19.63;;;6.60;;
53925;SDS011;39836;52.754;6.866;2023-02-18T01:35:17;18.02;;;6.70;;
53925;SDS011;39836;52.754;6.866;2023-02-18T01:37:43;29.38;;;7.63;;
53925;SDS011;39836;52.754;6.866;2023-02-18T01:40:13;23.10;;;6.75;;
53925;SDS011;39836;52.754;6.866;2023-02-18T01:42:41;24.77;;;9.20;;
53925;SDS011;39836;52.754;6.866;2023-02-18T01:47:58;33.67;;;11.65;;
53925;SDS011;39836;52.754;6.866;2023-02-18T01:50:26;35.20;;;12.70;;
53925;SDS011;39836;52.754;6.866;2023-02-18T01:52:52;40.50;;;15.52;;
53925;SDS011;39836;52.754;6.866;2023-02-18T01:55:18;36.47;;;14.73;;
53925;SDS011;39836;52.754;6.866;2023-02-18T01:57:43;39.47;;;17.52;;
53925;SDS011;39836;52.754;6.866;2023-02-18T02:00:11;44.47;;;18.17;;
53925;SDS011;39836;52.754;6.866;2023-02-18T02:02:39;47.50;;;19.45;;
53925;SDS011;39836;52.754;6.866;2023-02-18T02:05:09;43.83;;;18.98;;
53925;SDS011;39836;52.754;6.866;2023-02-18T02:07:36;56.08;;;20.15;;
53925;SDS011;39836;52.754;6.866;2023-02-18T02:10:04;43.03;;;20.08;;
53925;SDS011;39836;52.754;6.866;2023-02-18T02:20:52;46.47;;;18.60;;
53925;SDS011;39836;52.754;6.866;2023-02-18T02:34:44;37.60;;;18.55;;
53925;SDS011;39836;52.754;6.866;2023-02-18T02:45:28;40.72;;;17.92;;
53925;SDS011;39836;52.754;6.866;2023-02-18T02:50:51;45.10;;;18.13;;
53925;SDS011;39836;52.754;6.866;2023-02-18T02:53:25;45.22;;;18.10;;
53925;SDS011;39836;52.754;6.866;2023-02-18T02:55:53;48.70;;;20.38;;
53925;SDS011;39836;52.754;6.866;2023-02-18T02:58:20;38.25;;;19.17;;
53925;SDS011;39836;52.754;6.866;2023-02-18T03:03:42;49.20;;;18.00;;
53925;SDS011;39836;52.754;6.866;2023-02-18T03:09:17;58.20;;;20.45;;
53925;SDS011;39836;52.754;6.866;2023-02-18T03:12:07;48.40;;;21.88;;
53925;SDS011;39836;52.754;6.866;2023-02-18T03:14:52;53.33;;;21.58;;
53925;SDS011;39836;52.754;6.866;2023-02-18T03:17:30;47.67;;;22.35;;
53925;SDS011;39836;52.754;6.866;2023-02-18T03:20:07;52.90;;;23.27;;
53925;SDS011;39836;52.754;6.866;2023-02-18T03:22:41;58.15;;;22.98;;
53925;SDS011;39836;52.754;6.866;2023-02-18T03:25:10;55.05;;;25.15;;
53925;SDS011;39836;52.754;6.866;2023-02-18T03:27:45;53.72;;;25.02;;
53925;SDS011;39836;52.754;6.866;2023-02-18T03:30:17;72.20;;;28.60;;
53925;SDS011;39836;52.754;6.866;2023-02-18T03:32:52;68.10;;;27.73;;
53925;SDS011;39836;52.754;6.866;2023-02-18T03:35:21;60.90;;;30.38;;
53925;SDS011;39836;52.754;6.866;2023-02-18T03:37:50;76.00;;;30.48;;
53925;SDS011;39836;52.754;6.866;2023-02-18T03:40:24;68.28;;;31.20;;
53925;SDS011;39836;52.754;6.866;2023-02-18T03:42:55;82.15;;;33.42;;
53925;SDS011;39836;52.754;6.866;2023-02-18T03:45:24;80.60;;;34.25;;
53925;SDS011;39836;52.754;6.866;2023-02-18T03:47:51;67.75;;;34.08;;
53925;SDS011;39836;52.754;6.866;2023-02-18T03:50:17;68.72;;;33.00;;
53925;SDS011;39836;52.754;6.866;2023-02-18T03:52:42;80.82;;;35.97;;
53925;SDS011;39836;52.754;6.866;2023-02-18T03:55:08;83.18;;;35.08;;
53925;SDS011;39836;52.754;6.866;2023-02-18T03:57:34;85.03;;;36.40;;
53925;SDS011;39836;52.754;6.866;2023-02-18T04:00:00;94.43;;;39.95;;
53925;SDS011;39836;52.754;6.866;2023-02-18T04:02:26;86.88;;;38.20;;
53925;SDS011;39836;52.754;6.866;2023-02-18T04:04:51;89.65;;;39.67;;
53925;SDS011;39836;52.754;6.866;2023-02-18T04:07:17;100.55;;;38.55;;
53925;SDS011;39836;52.754;6.866;2023-02-18T04:09:43;100.53;;;36.47;;
53925;SDS011;39836;52.754;6.866;2023-02-18T04:12:08;84.88;;;35.45;;
53925;SDS011;39836;52.754;6.866;2023-02-18T04:14:34;108.50;;;39.63;;
53925;SDS011;39836;52.754;6.866;2023-02-18T04:17:00;91.70;;;36.90;;
53925;SDS011;39836;52.754;6.866;2023-02-18T04:19:26;93.90;;;39.85;;
53925;SDS011;39836;52.754;6.866;2023-02-18T04:21:51;99.18;;;41.42;;
53925;SDS011;39836;52.754;6.866;2023-02-18T04:24:17;100.90;;;38.92;;
53925;SDS011;39836;52.754;6.866;2023-02-18T04:26:43;91.05;;;39.05;;
53925;SDS011;39836;52.754;6.866;2023-02-18T04:29:08;103.72;;;41.42;;
53925;SDS011;39836;52.754;6.866;2023-02-18T04:31:34;88.68;;;38.35;;
53925;SDS011;39836;52.754;6.866;2023-02-18T04:34:00;79.32;;;35.97;;
53925;SDS011;39836;52.754;6.866;2023-02-18T04:36:26;97.75;;;38.65;;
53925;SDS011;39836;52.754;6.866;2023-02-18T04:38:51;82.72;;;35.58;;
53925;SDS011;39836;52.754;6.866;2023-02-18T04:41:17;81.28;;;33.60;;
53925;SDS011;39836;52.754;6.866;2023-02-18T04:43:43;108.32;;;37.25;;
53925;SDS011;39836;52.754;6.866;2023-02-18T04:46:08;84.50;;;35.50;;
53925;SDS011;39836;52.754;6.866;2023-02-18T04:48:34;88.00;;;36.08;;
53925;SDS011;39836;52.754;6.866;2023-02-18T04:51:00;75.75;;;35.10;;
53925;SDS011;39836;52.754;6.866;2023-02-18T04:53:26;77.15;;;32.97;;
53925;SDS011;39836;52.754;6.866;2023-02-18T04:55:52;90.55;;;31.20;;
53925;SDS011;39836;52.754;6.866;2023-02-18T04:58:19;85.75;;;35.42;;
53925;SDS011;39836;52.754;6.866;2023-02-18T05:00:45;81.00;;;32.30;;
53925;SDS011;39836;52.754;6.866;2023-02-18T05:03:12;84.22;;;28.98;;
53925;SDS011;39836;52.754;6.866;2023-02-18T05:05:39;84.05;;;31.17;;
53925;SDS011;39836;52.754;6.866;2023-02-18T05:08:06;75.95;;;28.75;;
53925;SDS011;39836;52.754;6.866;2023-02-18T05:10:32;70.55;;;27.08;;
53925;SDS011;39836;52.754;6.866;2023-02-18T05:12:58;73.25;;;27.88;;
53925;SDS011;39836;52.754;6.866;2023-02-18T05:15:24;76.18;;;28.35;;
53925;SDS011;39836;52.754;6.866;2023-02-18T05:17:50;82.30;;;31.15;;
53925;SDS011;39836;52.754;6.866;2023-02-18T05:20:16;95.10;;;32.35;;
53925;SDS011;39836;52.754;6.866;2023-02-18T05:22:42;90.03;;;29.17;;
53925;SDS011;39836;52.754;6.866;2023-02-18T05:25:08;96.70;;;32.55;;
53925;SDS011;39836;52.754;6.866;2023-02-18T05:27:33;89.68;;;31.42;;
53925;SDS011;39836;52.754;6.866;2023-02-18T05:29:59;101.20;;;33.88;;
53925;SDS011;39836;52.754;6.866;2023-02-18T05:32:25;104.90;;;32.75;;
53925;SDS011;39836;52.754;6.866;2023-02-18T05:34:50;121.10;;;35.53;;
53925;SDS011;39836;52.754;6.866;2023-02-18T05:37:16;125.95;;;31.50;;
53925;SDS011;39836;52.754;6.866;2023-02-18T05:39:42;131.15;;;33.53;;
53925;SDS011;39836;52.754;6.866;2023-02-18T05:42:09;131.15;;;34.45;;
53925;SDS011;39836;52.754;6.866;2023-02-18T05:44:35;111.15;;;29.48;;
53925;SDS011;39836;52.754;6.866;2023-02-18T05:47:05;114.03;;;30.77;;
53925;SDS011;39836;52.754;6.866;2023-02-18T05:49:34;109.43;;;29.77;;
53925;SDS011;39836;52.754;6.866;2023-02-18T05:52:00;123.68;;;30.30;;
53925;SDS011;39836;52.754;6.866;2023-02-18T05:54:27;137.52;;;29.38;;
53925;SDS011;39836;52.754;6.866;2023-02-18T05:56:53;117.55;;;29.30;;
53925;SDS011;39836;52.754;6.866;2023-02-18T05:59:19;87.82;;;24.08;;
53925;SDS011;39836;52.754;6.866;2023-02-18T06:01:45;89.65;;;24.20;;
53925;SDS011;39836;52.754;6.866;2023-02-18T06:04:11;103.07;;;24.92;;
53925;SDS011;39836;52.754;6.866;2023-02-18T06:06:37;111.18;;;26.27;;
53925;SDS011;39836;52.754;6.866;2023-02-18T06:09:04;73.20;;;22.40;;
53925;SDS011;39836;52.754;6.866;2023-02-18T06:11:30;121.72;;;24.85;;
53925;SDS011;39836;52.754;6.866;2023-02-18T06:13:56;107.13;;;25.30;;
53925;SDS011;39836;52.754;6.866;2023-02-18T06:16:21;83.03;;;20.80;;
53925;SDS011;39836;52.754;6.866;2023-02-18T06:18:47;89.10;;;22.83;;
53925;SDS011;39836;52.754;6.866;2023-02-18T06:21:13;104.07;;;23.88;;
53925;SDS011;39836;52.754;6.866;2023-02-18T06:23:38;88.65;;;21.90;;
53925;SDS011;39836;52.754;6.866;2023-02-18T06:26:04;80.90;;;19.95;;
53925;SDS011;39836;52.754;6.866;2023-02-18T06:28:30;80.50;;;20.67;;
53925;SDS011;39836;52.754;6.866;2023-02-18T06:30:56;69.45;;;20.40;;
53925;SDS011;39836;52.754;6.866;2023-02-18T06:33:21;74.53;;;20.27;;
53925;SDS011;39836;52.754;6.866;2023-02-18T06:35:54;59.22;;;18.58;;
53925;SDS011;39836;52.754;6.866;2023-02-18T06:38:25;75.13;;;18.60;;
53925;SDS011;39836;52.754;6.866;2023-02-18T06:40:51;60.33;;;17.35;;
53925;SDS011;39836;52.754;6.866;2023-02-18T06:43:17;49.45;;;17.05;;
53925;SDS011;39836;52.754;6.866;2023-02-18T06:45:44;35.05;;;14.63;;
53925;SDS011;39836;52.754;6.866;2023-02-18T06:48:10;48.97;;;15.60;;
53925;SDS011;39836;52.754;6.866;2023-02-18T06:50:35;44.92;;;13.68;;
53925;SDS011;39836;52.754;6.866;2023-02-18T06:53:01;45.58;;;15.75;;
53925;SDS011;39836;52.754;6.866;2023-02-18T06:55:27;30.08;;;12.98;;
53925;SDS011;39836;52.754;6.866;2023-02-18T06:57:53;39.38;;;13.32;;
53925;SDS011;39836;52.754;6.866;2023-02-18T07:00:18;31.45;;;12.75;;
53925;SDS011;39836;52.754;6.866;2023-02-18T07:02:44;31.70;;;13.07;;
53925;SDS011;39836;52.754;6.866;2023-02-18T07:05:10;31.38;;;13.60;;
53925;SDS011;39836;52.754;6.866;2023-02-18T07:07:35;29.27;;;11.55;;
53925;SDS011;39836;52.754;6.866;2023-02-18T07:10:02;26.70;;;13.48;;
53925;SDS011;39836;52.754;6.866;2023-02-18T07:12:28;26.42;;;12.40;;
53925;SDS011;39836;52.754;6.866;2023-02-18T07:14:53;24.85;;;12.73;;
53925;SDS011;39836;52.754;6.866;2023-02-18T07:17:19;27.27;;;13.02;;
53925;SDS011;39836;52.754;6.866;2023-02-18T07:19:45;26.67;;;13.73;;
53925;SDS011;39836;52.754;6.866;2023-02-18T07:22:10;28.60;;;14.70;;
53925;SDS011;39836;52.754;6.866;2023-02-18T07:24:36;26.50;;;14.18;;
53925;SDS011;39836;52.754;6.866;2023-02-18T07:27:02;25.92;;;13.93;;
53925;SDS011;39836;52.754;6.866;2023-02-18T07:29:28;27.92;;;16.23;;
53925;SDS011;39836;52.754;6.866;2023-02-18T07:31:53;25.13;;;15.15;;
53925;SDS011;39836;52.754;6.866;2023-02-18T07:34:19;30.40;;;16.73;;
53925;SDS011;39836;52.754;6.866;2023-02-18T07:36:45;29.83;;;16.55;;
53925;SDS011;39836;52.754;6.866;2023-02-18T07:39:10;32.40;;;18.60;;
53925;SDS011;39836;52.754;6.866;2023-02-18T07:41:36;31.40;;;16.80;;
53925;SDS011;39836;52.754;6.866;2023-02-18T07:44:02;33.70;;;17.38;;
53925;SDS011;39836;52.754;6.866;2023-02-18T07:46:28;30.70;;;18.63;;
53925;SDS011;39836;52.754;6.866;2023-02-18T07:48:53;34.55;;;17.65;;
53925;SDS011;39836;52.754;6.866;2023-02-18T07:51:20;31.38;;;18.25;;
53925;SDS011;39836;52.754;6.866;2023-02-18T07:53:46;37.95;;;19.38;;
53925;SDS011;39836;52.754;6.866;2023-02-18T07:56:11;31.45;;;17.10;;
53925;SDS011;39836;52.754;6.866;2023-02-18T07:58:38;29.08;;;17.08;;
53925;SDS011;39836;52.754;6.866;2023-02-18T08:01:07;30.05;;;14.75;;
53925;SDS011;39836;52.754;6.866;2023-02-18T08:03:35;32.20;;;15.25;;
53925;SDS011;39836;52.754;6.866;2023-02-18T08:06:01;29.90;;;15.63;;
53925;SDS011;39836;52.754;6.866;2023-02-18T08:08:29;33.50;;;16.17;;
53925;SDS011;39836;52.754;6.866;2023-02-18T08:10:57;21.88;;;10.23;;
53925;SDS011;39836;52.754;6.866;2023-02-18T08:13:26;24.35;;;13.10;;
53925;SDS011;39836;52.754;6.866;2023-02-18T08:15:53;25.20;;;12.20;;
53925;SDS011;39836;52.754;6.866;2023-02-18T08:18:20;24.92;;;13.55;;
53925;SDS011;39836;52.754;6.866;2023-02-18T08:20:47;22.48;;;12.57;;
53925;SDS011;39836;52.754;6.866;2023-02-18T08:23:14;21.52;;;10.93;;
53925;SDS011;39836;52.754;6.866;2023-02-18T08:25:44;29.30;;;12.10;;
53925;SDS011;39836;52.754;6.866;2023-02-18T08:28:10;21.98;;;12.50;;
53925;SDS011;39836;52.754;6.866;2023-02-18T08:30:36;27.83;;;11.98;;
53925;SDS011;39836;52.754;6.866;2023-02-18T08:33:02;18.67;;;11.35;;
53925;SDS011;39836;52.754;6.866;2023-02-18T08:35:28;22.98;;;10.80;;
53925;SDS011;39836;52.754;6.866;2023-02-18T08:37:53;25.15;;;10.60;;
53925;SDS011;39836;52.754;6.866;2023-02-18T08:40:19;18.63;;;10.43;;
53925;SDS011;39836;52.754;6.866;2023-02-18T08:42:45;20.00;;;9.95;;
53925;SDS011;39836;52.754;6.866;2023-02-18T08:45:11;20.70;;;9.98;;
53925;SDS011;39836;52.754;6.866;2023-02-18T08:47:36;21.38;;;8.82;;
53925;SDS011;39836;52.754;6.866;2023-02-18T08:50:03;19.27;;;8.85;;
53925;SDS011;39836;52.754;6.866;2023-02-18T08:52:29;16.63;;;8.18;;
53925;SDS011;39836;52.754;6.866;2023-02-18T08:54:55;16.83;;;9.82;;
53925;SDS011;39836;52.754;6.866;2023-02-18T08:57:20;16.63;;;9.00;;
53925;SDS011;39836;52.754;6.866;2023-02-18T08:59:46;16.50;;;8.65;;
53925;SDS011;39836;52.754;6.866;2023-02-18T09:02:12;17.60;;;7.35;;
53925;SDS011;39836;52.754;6.866;2023-02-18T09:04:38;17.02;;;8.23;;
53925;SDS011;39836;52.754;6.866;2023-02-18T09:07:04;13.20;;;7.90;;
53925;SDS011;39836;52.754;6.866;2023-02-18T09:09:30;16.55;;;8.02;;
53925;SDS011;39836;52.754;6.866;2023-02-18T09:11:56;13.48;;;7.95;;
53925;SDS011;39836;52.754;6.866;2023-02-18T09:14:22;13.68;;;6.05;;
53925;SDS011;39836;52.754;6.866;2023-02-18T09:16:48;13.75;;;6.40;;
53925;SDS011;39836;52.754;6.866;2023-02-18T09:19:14;13.75;;;7.63;;
53925;SDS011;39836;52.754;6.866;2023-02-18T09:21:41;19.80;;;6.93;;
53925;SDS011;39836;52.754;6.866;2023-02-18T09:24:07;13.30;;;6.50;;
53925;SDS011;39836;52.754;6.866;2023-02-18T09:26:33;18.10;;;6.45;;
53925;SDS011;39836;52.754;6.866;2023-02-18T09:28:59;10.23;;;5.93;;
53925;SDS011;39836;52.754;6.866;2023-02-18T09:31:25;12.73;;;5.63;;
53925;SDS011;39836;52.754;6.866;2023-02-18T09:33:53;15.30;;;6.53;;
53925;SDS011;39836;52.754;6.866;2023-02-18T09:36:21;18.60;;;6.05;;
53925;SDS011;39836;52.754;6.866;2023-02-18T09:38:46;18.65;;;5.07;;
53925;SDS011;39836;52.754;6.866;2023-02-18T09:41:37;13.25;;;5.03;;
53925;SDS011;39836;52.754;6.866;2023-02-18T09:44:19;13.65;;;4.93;;
53925;SDS011;39836;52.754;6.866;2023-02-18T09:46:58;17.67;;;5.57;;
53925;SDS011;39836;52.754;6.866;2023-02-18T09:49:38;9.27;;;3.95;;
53925;SDS011;39836;52.754;6.866;2023-02-18T09:52:13;14.70;;;4.53;;
53925;SDS011;39836;52.754;6.866;2023-02-18T09:54:42;18.48;;;4.97;;
53925;SDS011;39836;52.754;6.866;2023-02-18T09:57:14;15.82;;;4.78;;
53925;SDS011;39836;52.754;6.866;2023-02-18T09:59:49;11.23;;;4.32;;
53925;SDS011;39836;52.754;6.866;2023-02-18T10:02:21;11.68;;;4.90;;
53925;SDS011;39836;52.754;6.866;2023-02-18T10:04:48;16.33;;;4.78;;
53925;SDS011;39836;52.754;6.866;2023-02-18T10:07:24;21.40;;;6.03;;
53925;SDS011;39836;52.754;6.866;2023-02-18T10:09:56;19.73;;;5.45;;
53925;SDS011;39836;52.754;6.866;2023-02-18T10:12:26;13.15;;;5.28;;
53925;SDS011;39836;52.754;6.866;2023-02-18T10:14:55;14.30;;;4.90;;
53925;SDS011;39836;52.754;6.866;2023-02-18T10:17:25;19.23;;;5.72;;
53925;SDS011;39836;52.754;6.866;2023-02-18T10:19:53;21.05;;;5.55;;
53925;SDS011;39836;52.754;6.866;2023-02-18T10:22:21;16.33;;;4.60;;
53925;SDS011;39836;52.754;6.866;2023-02-18T10:24:50;23.23;;;5.28;;
53925;SDS011;39836;52.754;6.866;2023-02-18T10:29:53;21.25;;;6.60;;
53925;SDS011;39836;52.754;6.866;2023-02-18T10:48:18;17.98;;;4.63;;
53925;SDS011;39836;52.754;6.866;2023-02-18T10:51:05;22.05;;;5.20;;
53925;SDS011;39836;52.754;6.866;2023-02-18T10:53:40;18.30;;;4.05;;
53925;SDS011;39836;52.754;6.866;2023-02-18T10:56:08;17.27;;;4.57;;
53925;SDS011;39836;52.754;6.866;2023-02-18T10:59:01;18.98;;;3.80;;
53925;SDS011;39836;52.754;6.866;2023-02-18T11:01:36;13.23;;;3.30;;
53925;SDS011;39836;52.754;6.866;2023-02-18T11:04:06;20.65;;;4.15;;
53925;SDS011;39836;52.754;6.866;2023-02-18T11:06:44;18.85;;;4.40;;
53925;SDS011;39836;52.754;6.866;2023-02-18T11:12:05;21.33;;;5.20;;
53925;SDS011;39836;52.754;6.866;2023-02-18T11:14:42;15.93;;;4.15;;
53925;SDS011;39836;52.754;6.866;2023-02-18T11:17:26;19.20;;;3.92;;
53925;SDS011;39836;52.754;6.866;2023-02-18T11:19:57;16.35;;;3.80;;
53925;SDS011;39836;52.754;6.866;2023-02-18T11:25:02;13.23;;;4.53;;
53925;SDS011;39836;52.754;6.866;2023-02-18T11:27:43;14.90;;;3.72;;
53925;SDS011;39836;52.754;6.866;2023-02-18T11:30:24;13.85;;;4.07;;
53925;SDS011;39836;52.754;6.866;2023-02-18T11:32:56;12.63;;;3.47;;
53925;SDS011;39836;52.754;6.866;2023-02-18T11:35:26;17.30;;;3.67;;
53925;SDS011;39836;52.754;6.866;2023-02-18T11:37:57;17.63;;;3.85;;
53925;SDS011;39836;52.754;6.866;2023-02-18T11:40:30;21.48;;;4.55;;
53925;SDS011;39836;52.754;6.866;2023-02-18T11:43:02;18.27;;;4.47;;
53925;SDS011;39836;52.754;6.866;2023-02-18T11:45:38;18.35;;;5.53;;
53925;SDS011;39836;52.754;6.866;2023-02-18T11:48:13;26.88;;;3.95;;
53925;SDS011;39836;52.754;6.866;2023-02-18T11:50:43;22.88;;;4.43;;
53925;SDS011;39836;52.754;6.866;2023-02-18T11:53:33;33.50;;;4.60;;
53925;SDS011;39836;52.754;6.866;2023-02-18T11:56:15;14.40;;;3.92;;
53925;SDS011;39836;52.754;6.866;2023-02-18T11:58:43;19.00;;;3.85;;
53925;SDS011;39836;52.754;6.866;2023-02-18T12:01:16;16.55;;;3.63;;
53925;SDS011;39836;52.754;6.866;2023-02-18T12:04:32;19.60;;;4.15;;
53925;SDS011;39836;52.754;6.866;2023-02-18T12:06:32;21.55;;;4.28;;
53925;SDS011;39836;52.754;6.866;2023-02-18T12:09:05;15.73;;;4.07;;
53925;SDS011;39836;52.754;6.866;2023-02-18T12:11:54;20.83;;;3.88;;
53925;SDS011;39836;52.754;6.866;2023-02-18T12:14:22;17.58;;;4.20;;
53925;SDS011;39836;52.754;6.866;2023-02-18T12:24:43;21.35;;;4.38;;
53925;SDS011;39836;52.754;6.866;2023-02-18T12:27:34;15.40;;;3.22;;
53925;SDS011;39836;52.754;6.866;2023-02-18T12:30:17;13.80;;;4.97;;
53925;SDS011;39836;52.754;6.866;2023-02-18T12:33:18;20.40;;;4.30;;
53925;SDS011;39836;52.754;6.866;2023-02-18T12:36:09;11.43;;;3.00;;
53925;SDS011;39836;52.754;6.866;2023-02-18T12:52:14;14.20;;;3.33;;
53925;SDS011;39836;52.754;6.866;2023-02-18T12:57:42;11.70;;;3.72;;
53925;SDS011;39836;52.754;6.866;2023-02-18T13:05:46;16.05;;;3.60;;
53925;SDS011;39836;52.754;6.866;2023-02-18T13:08:40;14.82;;;3.92;;
53925;SDS011;39836;52.754;6.866;2023-02-18T13:14:08;7.82;;;2.72;;
53925;SDS011;39836;52.754;6.866;2023-02-18T13:16:43;12.23;;;3.13;;
53925;SDS011;39836;52.754;6.866;2023-02-18T13:21:46;10.35;;;2.97;;
53925;SDS011;39836;52.754;6.866;2023-02-18T13:24:17;14.75;;;3.35;;
53925;SDS011;39836;52.754;6.866;2023-02-18T13:26:50;12.10;;;2.83;;
53925;SDS011;39836;52.754;6.866;2023-02-18T13:29:28;11.50;;;3.28;;
53925;SDS011;39836;52.754;6.866;2023-02-18T13:37:58;15.40;;;3.70;;
53925;SDS011;39836;52.754;6.866;2023-02-18T13:40:36;10.82;;;3.13;;
53925;SDS011;39836;52.754;6.866;2023-02-18T13:43:19;11.88;;;3.63;;
53925;SDS011;39836;52.754;6.866;2023-02-18T13:46:11;18.17;;;3.92;;
53925;SDS011;39836;52.754;6.866;2023-02-18T13:51:12;7.25;;;2.63;;
53925;SDS011;39836;52.754;6.866;2023-02-18T13:53:41;18.77;;;3.53;;
53925;SDS011;39836;52.754;6.866;2023-02-18T13:56:21;13.27;;;3.53;;
53925;SDS011;39836;52.754;6.866;2023-02-18T13:59:55;13.20;;;3.38;;
53925;SDS011;39836;52.754;6.866;2023-02-18T14:01:54;15.25;;;3.80;;
53925;SDS011;39836;52.754;6.866;2023-02-18T14:10:09;12.35;;;2.47;;
53925;SDS011;39836;52.754;6.866;2023-02-18T14:25:53;16.63;;;4.45;;
53925;SDS011;39836;52.754;6.866;2023-02-18T14:33:38;13.93;;;2.92;;
53925;SDS011;39836;52.754;6.866;2023-02-18T14:38:41;11.40;;;3.25;;
53925;SDS011;39836;52.754;6.866;2023-02-18T14:50:11;8.35;;;3.15;;
53925;SDS011;39836;52.754;6.866;2023-02-18T14:52:49;13.40;;;3.03;;
53925;SDS011;39836;52.754;6.866;2023-02-18T14:55:43;12.40;;;2.97;;
53925;SDS011;39836;52.754;6.866;2023-02-18T15:00:57;12.45;;;2.75;;
53925;SDS011;39836;52.754;6.866;2023-02-18T15:03:29;15.80;;;3.65;;
53925;SDS011;39836;52.754;6.866;2023-02-18T15:05:55;9.15;;;3.60;;
53925;SDS011;39836;52.754;6.866;2023-02-18T15:08:22;12.40;;;3.30;;
53925;SDS011;39836;52.754;6.866;2023-02-18T15:10:59;10.05;;;2.05;;
53925;SDS011;39836;52.754;6.866;2023-02-18T15:16:01;12.00;;;3.90;;
53925;SDS011;39836;52.754;6.866;2023-02-18T15:18:40;12.93;;;2.70;;
53925;SDS011;39836;52.754;6.866;2023-02-18T15:21:08;9.60;;;2.63;;
53925;SDS011;39836;52.754;6.866;2023-02-18T15:23:47;14.48;;;3.15;;
53925;SDS011;39836;52.754;6.866;2023-02-18T15:26:13;17.45;;;3.85;;
53925;SDS011;39836;52.754;6.866;2023-02-18T15:28:53;16.42;;;3.67;;
53925;SDS011;39836;52.754;6.866;2023-02-18T15:31:27;14.80;;;3.28;;
53925;SDS011;39836;52.754;6.866;2023-02-18T15:33:55;19.15;;;3.08;;
53925;SDS011;39836;52.754;6.866;2023-02-18T15:36:24;15.48;;;3.30;;
53925;SDS011;39836;52.754;6.866;2023-02-18T15:38:50;14.90;;;3.35;;
53925;SDS011;39836;52.754;6.866;2023-02-18T15:41:16;14.32;;;3.33;;
53925;SDS011;39836;52.754;6.866;2023-02-18T15:43:55;14.95;;;3.58;;
53925;SDS011;39836;52.754;6.866;2023-02-18T15:46:25;12.13;;;4.40;;
53925;SDS011;39836;52.754;6.866;2023-02-18T15:48:52;11.73;;;2.92;;
53925;SDS011;39836;52.754;6.866;2023-02-18T15:51:21;10.45;;;3.03;;
53925;SDS011;39836;52.754;6.866;2023-02-18T15:53:51;9.85;;;2.50;;
53925;SDS011;39836;52.754;6.866;2023-02-18T15:56:24;16.92;;;3.13;;
53925;SDS011;39836;52.754;6.866;2023-02-18T15:58:55;8.85;;;2.70;;
53925;SDS011;39836;52.754;6.866;2023-02-18T16:01:32;15.02;;;3.15;;
53925;SDS011;39836;52.754;6.866;2023-02-18T16:03:57;17.13;;;3.42;;
53925;SDS011;39836;52.754;6.866;2023-02-18T16:06:25;7.38;;;2.90;;
53925;SDS011;39836;52.754;6.866;2023-02-18T16:09:06;12.15;;;3.13;;
53925;SDS011;39836;52.754;6.866;2023-02-18T16:11:48;19.20;;;3.30;;
53925;SDS011;39836;52.754;6.866;2023-02-18T16:14:33;16.13;;;4.75;;
53925;SDS011;39836;52.754;6.866;2023-02-18T16:19:44;12.20;;;2.95;;
53925;SDS011;39836;52.754;6.866;2023-02-18T16:25:00;17.60;;;3.70;;
53925;SDS011;39836;52.754;6.866;2023-02-18T16:30:31;13.25;;;3.00;;
53925;SDS011;39836;52.754;6.866;2023-02-18T16:32:58;10.43;;;2.72;;
53925;SDS011;39836;52.754;6.866;2023-02-18T16:35:26;17.20;;;2.90;;
53925;SDS011;39836;52.754;6.866;2023-02-18T16:37:53;15.52;;;4.55;;
53925;SDS011;39836;52.754;6.866;2023-02-18T16:43:01;9.63;;;2.75;;
53925;SDS011;39836;52.754;6.866;2023-02-18T16:45:58;14.23;;;3.17;;
53925;SDS011;39836;52.754;6.866;2023-02-18T16:48:30;13.75;;;2.72;;
53925;SDS011;39836;52.754;6.866;2023-02-18T16:50:58;16.45;;;3.13;;
53925;SDS011;39836;52.754;6.866;2023-02-18T16:53:26;16.63;;;3.75;;
53925;SDS011;39836;52.754;6.866;2023-02-18T16:55:52;21.30;;;2.83;;
53925;SDS011;39836;52.754;6.866;2023-02-18T16:58:18;21.88;;;3.88;;
53925;SDS011;39836;52.754;6.866;2023-02-18T17:00:44;13.27;;;3.28;;
53925;SDS011;39836;52.754;6.866;2023-02-18T17:03:11;13.25;;;3.35;;
53925;SDS011;39836;52.754;6.866;2023-02-18T17:05:37;17.60;;;3.75;;
53925;SDS011;39836;52.754;6.866;2023-02-18T17:08:17;13.63;;;3.15;;
53925;SDS011;39836;52.754;6.866;2023-02-18T17:10:47;18.05;;;3.65;;
53925;SDS011;39836;52.754;6.866;2023-02-18T17:13:15;15.95;;;3.08;;
53925;SDS011;39836;52.754;6.866;2023-02-18T17:15:43;20.05;;;3.80;;
53925;SDS011;39836;52.754;6.866;2023-02-18T17:18:09;22.88;;;3.88;;
53925;SDS011;39836;52.754;6.866;2023-02-18T17:20:36;19.20;;;3.55;;